sensor_id;sensor_type;location;lat;lon;timestamp;temperature;humidity
64493;DHT22;50868;24.150;-110.320;2023-06-10T00:02:17;45.50;39.60
64493;DHT22;50868;24.150;-110.320;2023-06-10T00:04:44;46.30;40.60
64493;DHT22;50868;24.150;-110.320;2023-06-10T00:07:11;46.60;39.00
64493;DHT22;50868;24.150;-110.320;2023-06-10T00:09:38;46.30;38.50
64493;DHT22;50868;24.150;-110.320;2023-06-10T00:12:06;45.90;38.60
64493;DHT22;50868;24.150;-110.320;2023-06-10T00:14:35;46.00;38.40
64493;DHT22;50868;24.150;-110.320;2023-06-10T00:17:02;46.10;38.50
64493;DHT22;50868;24.150;-110.320;2023-06-10T00:19:30;46.40;41.10
64493;DHT22;50868;24.150;-110.320;2023-06-10T00:21:57;46.60;41.90
64493;DHT22;50868;24.150;-110.320;2023-06-10T00:24:24;46.50;41.40
64493;DHT22;50868;24.150;-110.320;2023-06-10T00:26:51;47.20;41.70
64493;DHT22;50868;24.150;-110.320;2023-06-10T00:29:18;47.60;42.00
64493;DHT22;50868;24.150;-110.320;2023-06-10T00:31:46;48.00;41.20
64493;DHT22;50868;24.150;-110.320;2023-06-10T00:34:13;47.90;40.00
64493;DHT22;50868;24.150;-110.320;2023-06-10T00:36:40;47.50;41.60
64493;DHT22;50868;24.150;-110.320;2023-06-10T00:39:09;47.80;41.80
64493;DHT22;50868;24.150;-110.320;2023-06-10T00:41:36;48.00;41.20
64493;DHT22;50868;24.150;-110.320;2023-06-10T00:44:04;48.30;41.00
64493;DHT22;50868;24.150;-110.320;2023-06-10T00:46:31;47.60;41.40
64493;DHT22;50868;24.150;-110.320;2023-06-10T00:49:00;47.50;41.10
64493;DHT22;50868;24.150;-110.320;2023-06-10T00:51:27;47.60;41.10
64493;DHT22;50868;24.150;-110.320;2023-06-10T00:53:55;46.00;42.20
64493;DHT22;50868;24.150;-110.320;2023-06-10T00:56:22;45.60;44.40
64493;DHT22;50868;24.150;-110.320;2023-06-10T00:58:50;45.40;45.20
64493;DHT22;50868;24.150;-110.320;2023-06-10T01:01:17;45.40;46.60
64493;DHT22;50868;24.150;-110.320;2023-06-10T01:03:46;46.00;45.80
64493;DHT22;50868;24.150;-110.320;2023-06-10T01:06:18;46.20;45.60
64493;DHT22;50868;24.150;-110.320;2023-06-10T01:09:02;46.40;45.20
64493;DHT22;50868;24.150;-110.320;2023-06-10T01:11:41;46.00;45.90
64493;DHT22;50868;24.150;-110.320;2023-06-10T01:14:11;45.90;42.60
64493;DHT22;50868;24.150;-110.320;2023-06-10T01:16:41;45.90;45.30
64493;DHT22;50868;24.150;-110.320;2023-06-10T01:19:09;46.50;43.80
64493;DHT22;50868;24.150;-110.320;2023-06-10T01:21:38;46.10;43.00
64493;DHT22;50868;24.150;-110.320;2023-06-10T01:24:05;46.30;44.10
64493;DHT22;50868;24.150;-110.320;2023-06-10T01:26:34;46.20;42.00
64493;DHT22;50868;24.150;-110.320;2023-06-10T01:29:16;44.20;45.70
64493;DHT22;50868;24.150;-110.320;2023-06-10T01:32:15;43.60;50.40
64493;DHT22;50868;24.150;-110.320;2023-06-10T01:34:44;43.60;50.70
64493;DHT22;50868;24.150;-110.320;2023-06-10T01:37:14;41.70;51.20
64493;DHT22;50868;24.150;-110.320;2023-06-10T01:39:43;39.80;55.60
64493;DHT22;50868;24.150;-110.320;2023-06-10T01:42:15;38.00;60.30
64493;DHT22;50868;24.150;-110.320;2023-06-10T01:44:42;38.20;61.10
64493;DHT22;50868;24.150;-110.320;2023-06-10T01:47:09;37.90;62.30
64493;DHT22;50868;24.150;-110.320;2023-06-10T01:49:36;36.40;66.60
64493;DHT22;50868;24.150;-110.320;2023-06-10T01:52:04;36.00;67.60
64493;DHT22;50868;24.150;-110.320;2023-06-10T01:54:31;35.80;68.80
64493;DHT22;50868;24.150;-110.320;2023-06-10T01:56:58;35.70;68.20
64493;DHT22;50868;24.150;-110.320;2023-06-10T01:59:25;34.80;71.20
64493;DHT22;50868;24.150;-110.320;2023-06-10T02:01:52;34.00;73.10
64493;DHT22;50868;24.150;-110.320;2023-06-10T02:04:19;33.00;75.20
64493;DHT22;50868;24.150;-110.320;2023-06-10T02:06:46;32.30;76.50
64493;DHT22;50868;24.150;-110.320;2023-06-10T02:09:13;31.60;79.50
64493;DHT22;50868;24.150;-110.320;2023-06-10T02:11:40;31.10;79.00
64493;DHT22;50868;24.150;-110.320;2023-06-10T02:14:08;30.60;80.80
64493;DHT22;50868;24.150;-110.320;2023-06-10T02:16:35;30.00;83.00
64493;DHT22;50868;24.150;-110.320;2023-06-10T02:19:02;30.10;82.20
64493;DHT22;50868;24.150;-110.320;2023-06-10T02:21:33;29.70;84.60
64493;DHT22;50868;24.150;-110.320;2023-06-10T02:24:00;29.30;85.20
64493;DHT22;50868;24.150;-110.320;2023-06-10T02:26:27;29.00;86.20
64493;DHT22;50868;24.150;-110.320;2023-06-10T02:28:55;28.90;85.90
64493;DHT22;50868;24.150;-110.320;2023-06-10T02:31:22;28.80;85.60
64493;DHT22;50868;24.150;-110.320;2023-06-10T02:33:50;28.80;82.90
64493;DHT22;50868;24.150;-110.320;2023-06-10T02:36:17;29.10;64.70
64493;DHT22;50868;24.150;-110.320;2023-06-10T02:38:44;29.20;61.70
64493;DHT22;50868;24.150;-110.320;2023-06-10T02:41:11;29.20;61.50
64493;DHT22;50868;24.150;-110.320;2023-06-10T02:43:38;29.20;60.60
64493;DHT22;50868;24.150;-110.320;2023-06-10T02:46:05;29.10;60.50
64493;DHT22;50868;24.150;-110.320;2023-06-10T02:48:41;29.20;60.00
64493;DHT22;50868;24.150;-110.320;2023-06-10T02:51:11;29.20;59.80
64493;DHT22;50868;24.150;-110.320;2023-06-10T02:53:39;29.20;59.50
64493;DHT22;50868;24.150;-110.320;2023-06-10T02:56:06;29.20;59.30
64493;DHT22;50868;24.150;-110.320;2023-06-10T02:58:33;29.30;58.60
64493;DHT22;50868;24.150;-110.320;2023-06-10T03:01:00;29.30;58.50
64493;DHT22;50868;24.150;-110.320;2023-06-10T03:03:28;29.20;58.40
64493;DHT22;50868;24.150;-110.320;2023-06-10T03:05:55;29.10;58.60
64493;DHT22;50868;24.150;-110.320;2023-06-10T03:08:23;29.00;58.90
64493;DHT22;50868;24.150;-110.320;2023-06-10T03:10:50;29.10;58.20
64493;DHT22;50868;24.150;-110.320;2023-06-10T03:13:17;28.90;58.70
64493;DHT22;50868;24.150;-110.320;2023-06-10T03:15:44;28.90;58.90
64493;DHT22;50868;24.150;-110.320;2023-06-10T03:18:12;28.90;58.50
64493;DHT22;50868;24.150;-110.320;2023-06-10T03:20:39;28.80;58.50
64493;DHT22;50868;24.150;-110.320;2023-06-10T03:23:06;28.70;58.40
64493;DHT22;50868;24.150;-110.320;2023-06-10T03:25:33;28.60;58.50
64493;DHT22;50868;24.150;-110.320;2023-06-10T03:28:00;28.70;58.40
64493;DHT22;50868;24.150;-110.320;2023-06-10T03:30:28;28.70;58.50
64493;DHT22;50868;24.150;-110.320;2023-06-10T03:32:55;28.60;58.30
64493;DHT22;50868;24.150;-110.320;2023-06-10T03:35:22;28.50;58.50
64493;DHT22;50868;24.150;-110.320;2023-06-10T03:37:49;28.50;58.70
64493;DHT22;50868;24.150;-110.320;2023-06-10T03:40:16;28.50;59.00
64493;DHT22;50868;24.150;-110.320;2023-06-10T03:42:44;28.40;59.20
64493;DHT22;50868;24.150;-110.320;2023-06-10T03:45:11;28.30;59.10
64493;DHT22;50868;24.150;-110.320;2023-06-10T03:47:39;28.40;59.00
64493;DHT22;50868;24.150;-110.320;2023-06-10T03:50:08;28.30;59.00
64493;DHT22;50868;24.150;-110.320;2023-06-10T03:52:37;28.30;59.10
64493;DHT22;50868;24.150;-110.320;2023-06-10T03:55:04;28.20;59.60
64493;DHT22;50868;24.150;-110.320;2023-06-10T03:57:32;28.20;59.70
64493;DHT22;50868;24.150;-110.320;2023-06-10T03:59:59;28.20;60.10
64493;DHT22;50868;24.150;-110.320;2023-06-10T04:02:26;28.10;60.30
64493;DHT22;50868;24.150;-110.320;2023-06-10T04:04:53;28.10;60.60
64493;DHT22;50868;24.150;-110.320;2023-06-10T04:07:20;28.10;60.50
64493;DHT22;50868;24.150;-110.320;2023-06-10T04:09:47;28.00;60.90
64493;DHT22;50868;24.150;-110.320;2023-06-10T04:12:15;28.00;61.10
64493;DHT22;50868;24.150;-110.320;2023-06-10T04:14:43;27.90;61.40
64493;DHT22;50868;24.150;-110.320;2023-06-10T04:17:10;27.90;61.80
64493;DHT22;50868;24.150;-110.320;2023-06-10T04:19:37;27.80;61.90
64493;DHT22;50868;24.150;-110.320;2023-06-10T04:22:04;27.70;62.00
64493;DHT22;50868;24.150;-110.320;2023-06-10T04:24:31;27.80;61.80
64493;DHT22;50868;24.150;-110.320;2023-06-10T04:26:58;27.80;61.60
64493;DHT22;50868;24.150;-110.320;2023-06-10T04:29:26;27.80;61.90
64493;DHT22;50868;24.150;-110.320;2023-06-10T04:31:54;27.70;61.80
64493;DHT22;50868;24.150;-110.320;2023-06-10T04:34:21;27.80;61.50
64493;DHT22;50868;24.150;-110.320;2023-06-10T04:36:49;27.70;61.80
64493;DHT22;50868;24.150;-110.320;2023-06-10T04:39:17;27.60;62.40
64493;DHT22;50868;24.150;-110.320;2023-06-10T04:41:44;27.50;62.80
64493;DHT22;50868;24.150;-110.320;2023-06-10T04:44:12;27.50;62.80
64493;DHT22;50868;24.150;-110.320;2023-06-10T04:46:40;27.40;62.80
64493;DHT22;50868;24.150;-110.320;2023-06-10T04:49:07;27.40;62.80
64493;DHT22;50868;24.150;-110.320;2023-06-10T04:51:34;27.30;63.00
64493;DHT22;50868;24.150;-110.320;2023-06-10T04:54:01;27.20;63.60
64493;DHT22;50868;24.150;-110.320;2023-06-10T04:56:32;27.20;63.80
64493;DHT22;50868;24.150;-110.320;2023-06-10T04:59:00;27.10;64.10
64493;DHT22;50868;24.150;-110.320;2023-06-10T05:01:27;27.00;64.50
64493;DHT22;50868;24.150;-110.320;2023-06-10T05:03:54;27.00;65.20
64493;DHT22;50868;24.150;-110.320;2023-06-10T05:06:21;26.70;65.80
64493;DHT22;50868;24.150;-110.320;2023-06-10T05:08:48;26.70;66.30
64493;DHT22;50868;24.150;-110.320;2023-06-10T05:11:18;26.60;66.70
64493;DHT22;50868;24.150;-110.320;2023-06-10T05:13:45;26.50;67.20
64493;DHT22;50868;24.150;-110.320;2023-06-10T05:16:12;26.50;67.20
64493;DHT22;50868;24.150;-110.320;2023-06-10T05:18:41;26.50;67.40
64493;DHT22;50868;24.150;-110.320;2023-06-10T05:21:08;26.40;67.80
64493;DHT22;50868;24.150;-110.320;2023-06-10T05:23:35;26.40;67.90
64493;DHT22;50868;24.150;-110.320;2023-06-10T05:26:03;26.30;68.00
64493;DHT22;50868;24.150;-110.320;2023-06-10T05:28:30;26.30;68.30
64493;DHT22;50868;24.150;-110.320;2023-06-10T05:30:57;26.20;68.30
64493;DHT22;50868;24.150;-110.320;2023-06-10T05:33:24;26.10;68.60
64493;DHT22;50868;24.150;-110.320;2023-06-10T05:35:51;26.10;68.80
64493;DHT22;50868;24.150;-110.320;2023-06-10T05:38:18;26.20;69.20
64493;DHT22;50868;24.150;-110.320;2023-06-10T05:40:46;26.10;69.40
64493;DHT22;50868;24.150;-110.320;2023-06-10T05:43:13;26.00;69.70
64493;DHT22;50868;24.150;-110.320;2023-06-10T05:45:43;25.90;70.00
64493;DHT22;50868;24.150;-110.320;2023-06-10T05:48:10;25.90;70.00
64493;DHT22;50868;24.150;-110.320;2023-06-10T05:50:37;25.90;70.10
64493;DHT22;50868;24.150;-110.320;2023-06-10T05:53:06;25.90;70.20
64493;DHT22;50868;24.150;-110.320;2023-06-10T05:55:34;25.70;70.70
64493;DHT22;50868;24.150;-110.320;2023-06-10T05:58:02;25.70;70.80
64493;DHT22;50868;24.150;-110.320;2023-06-10T06:00:29;25.60;71.00
64493;DHT22;50868;24.150;-110.320;2023-06-10T06:02:56;25.60;71.10
64493;DHT22;50868;24.150;-110.320;2023-06-10T06:05:25;25.60;70.90
64493;DHT22;50868;24.150;-110.320;2023-06-10T06:07:52;25.60;70.80
64493;DHT22;50868;24.150;-110.320;2023-06-10T06:10:19;25.50;71.10
64493;DHT22;50868;24.150;-110.320;2023-06-10T06:12:47;25.50;72.00
64493;DHT22;50868;24.150;-110.320;2023-06-10T06:15:15;25.50;71.40
64493;DHT22;50868;24.150;-110.320;2023-06-10T06:17:42;25.50;71.20
64493;DHT22;50868;24.150;-110.320;2023-06-10T06:20:09;25.50;71.10
64493;DHT22;50868;24.150;-110.320;2023-06-10T06:22:36;25.40;71.40
64493;DHT22;50868;24.150;-110.320;2023-06-10T06:25:04;25.40;71.20
64493;DHT22;50868;24.150;-110.320;2023-06-10T06:27:32;25.40;71.40
64493;DHT22;50868;24.150;-110.320;2023-06-10T06:29:59;25.40;71.20
64493;DHT22;50868;24.150;-110.320;2023-06-10T06:32:26;25.50;70.90
64493;DHT22;50868;24.150;-110.320;2023-06-10T06:34:54;25.40;70.80
64493;DHT22;50868;24.150;-110.320;2023-06-10T06:37:25;25.40;71.00
64493;DHT22;50868;24.150;-110.320;2023-06-10T06:39:53;25.40;70.90
64493;DHT22;50868;24.150;-110.320;2023-06-10T06:42:20;25.30;71.00
64493;DHT22;50868;24.150;-110.320;2023-06-10T06:44:48;25.30;71.00
64493;DHT22;50868;24.150;-110.320;2023-06-10T06:47:15;25.30;71.00
64493;DHT22;50868;24.150;-110.320;2023-06-10T06:49:47;25.30;70.80
64493;DHT22;50868;24.150;-110.320;2023-06-10T06:52:17;25.30;70.40
64493;DHT22;50868;24.150;-110.320;2023-06-10T06:54:45;25.30;70.70
64493;DHT22;50868;24.150;-110.320;2023-06-10T06:57:12;25.20;70.60
64493;DHT22;50868;24.150;-110.320;2023-06-10T06:59:39;25.30;70.40
64493;DHT22;50868;24.150;-110.320;2023-06-10T07:02:06;25.30;70.40
64493;DHT22;50868;24.150;-110.320;2023-06-10T07:04:34;25.30;70.50
64493;DHT22;50868;24.150;-110.320;2023-06-10T07:07:01;25.20;70.70
64493;DHT22;50868;24.150;-110.320;2023-06-10T07:09:28;25.20;70.80
64493;DHT22;50868;24.150;-110.320;2023-06-10T07:11:55;25.20;70.90
64493;DHT22;50868;24.150;-110.320;2023-06-10T07:14:22;25.10;71.00
64493;DHT22;50868;24.150;-110.320;2023-06-10T07:16:49;25.10;71.00
64493;DHT22;50868;24.150;-110.320;2023-06-10T07:19:16;25.10;70.70
64493;DHT22;50868;24.150;-110.320;2023-06-10T07:21:43;25.10;71.00
64493;DHT22;50868;24.150;-110.320;2023-06-10T07:24:11;25.00;71.10
64493;DHT22;50868;24.150;-110.320;2023-06-10T07:26:38;25.00;71.40
64493;DHT22;50868;24.150;-110.320;2023-06-10T07:29:05;25.00;71.30
64493;DHT22;50868;24.150;-110.320;2023-06-10T07:31:32;25.00;71.50
64493;DHT22;50868;24.150;-110.320;2023-06-10T07:33:59;24.90;71.50
64493;DHT22;50868;24.150;-110.320;2023-06-10T07:36:26;25.00;71.20
64493;DHT22;50868;24.150;-110.320;2023-06-10T07:38:55;24.90;71.40
64493;DHT22;50868;24.150;-110.320;2023-06-10T07:41:23;24.80;71.50
64493;DHT22;50868;24.150;-110.320;2023-06-10T07:43:54;24.90;70.90
64493;DHT22;50868;24.150;-110.320;2023-06-10T07:46:22;24.90;71.20
64493;DHT22;50868;24.150;-110.320;2023-06-10T07:48:50;24.90;70.90
64493;DHT22;50868;24.150;-110.320;2023-06-10T07:51:17;24.80;71.20
64493;DHT22;50868;24.150;-110.320;2023-06-10T07:53:44;24.70;71.40
64493;DHT22;50868;24.150;-110.320;2023-06-10T07:56:12;24.70;71.50
64493;DHT22;50868;24.150;-110.320;2023-06-10T07:58:39;24.70;71.80
64493;DHT22;50868;24.150;-110.320;2023-06-10T08:01:06;24.80;71.50
64493;DHT22;50868;24.150;-110.320;2023-06-10T08:03:33;24.70;71.40
64493;DHT22;50868;24.150;-110.320;2023-06-10T08:06:00;24.70;71.50
64493;DHT22;50868;24.150;-110.320;2023-06-10T08:08:28;24.70;71.50
64493;DHT22;50868;24.150;-110.320;2023-06-10T08:10:55;24.70;71.50
64493;DHT22;50868;24.150;-110.320;2023-06-10T08:13:22;24.60;71.60
64493;DHT22;50868;24.150;-110.320;2023-06-10T08:15:50;24.60;72.00
64493;DHT22;50868;24.150;-110.320;2023-06-10T08:18:17;24.60;71.80
64493;DHT22;50868;24.150;-110.320;2023-06-10T08:20:44;24.60;71.70
64493;DHT22;50868;24.150;-110.320;2023-06-10T08:23:11;24.50;72.00
64493;DHT22;50868;24.150;-110.320;2023-06-10T08:25:38;24.40;72.10
64493;DHT22;50868;24.150;-110.320;2023-06-10T08:28:05;24.50;72.10
64493;DHT22;50868;24.150;-110.320;2023-06-10T08:30:32;24.50;72.10
64493;DHT22;50868;24.150;-110.320;2023-06-10T08:33:00;24.50;71.70
64493;DHT22;50868;24.150;-110.320;2023-06-10T08:35:27;24.40;72.00
64493;DHT22;50868;24.150;-110.320;2023-06-10T08:37:54;24.40;72.00
64493;DHT22;50868;24.150;-110.320;2023-06-10T08:40:21;24.30;72.20
64493;DHT22;50868;24.150;-110.320;2023-06-10T08:45:30;24.30;72.20
64493;DHT22;50868;24.150;-110.320;2023-06-10T08:48:03;24.30;72.30
64493;DHT22;50868;24.150;-110.320;2023-06-10T08:50:37;24.20;72.10
64493;DHT22;50868;24.150;-110.320;2023-06-10T08:53:08;24.30;72.70
64493;DHT22;50868;24.150;-110.320;2023-06-10T08:55:41;24.30;71.70
64493;DHT22;50868;24.150;-110.320;2023-06-10T08:58:09;24.30;71.30
64493;DHT22;50868;24.150;-110.320;2023-06-10T09:00:36;24.30;71.30
64493;DHT22;50868;24.150;-110.320;2023-06-10T09:03:05;24.30;71.40
64493;DHT22;50868;24.150;-110.320;2023-06-10T09:05:35;24.30;71.30
64493;DHT22;50868;24.150;-110.320;2023-06-10T09:08:08;24.20;71.40
64493;DHT22;50868;24.150;-110.320;2023-06-10T09:10:36;24.30;71.40
64493;DHT22;50868;24.150;-110.320;2023-06-10T09:13:03;24.20;71.60
64493;DHT22;50868;24.150;-110.320;2023-06-10T09:15:30;24.10;72.00
64493;DHT22;50868;24.150;-110.320;2023-06-10T09:17:57;24.00;72.00
64493;DHT22;50868;24.150;-110.320;2023-06-10T09:20:26;23.90;72.20
64493;DHT22;50868;24.150;-110.320;2023-06-10T09:22:53;23.80;72.30
64493;DHT22;50868;24.150;-110.320;2023-06-10T09:25:35;23.80;72.60
64493;DHT22;50868;24.150;-110.320;2023-06-10T09:28:04;23.80;72.90
64493;DHT22;50868;24.150;-110.320;2023-06-10T09:30:34;23.80;72.60
64493;DHT22;50868;24.150;-110.320;2023-06-10T09:33:03;23.80;72.80
64493;DHT22;50868;24.150;-110.320;2023-06-10T09:35:50;23.70;72.70
64493;DHT22;50868;24.150;-110.320;2023-06-10T09:38:21;23.60;73.10
64493;DHT22;50868;24.150;-110.320;2023-06-10T09:40:52;23.60;73.10
64493;DHT22;50868;24.150;-110.320;2023-06-10T09:43:20;23.50;73.20
64493;DHT22;50868;24.150;-110.320;2023-06-10T09:45:49;23.40;73.60
64493;DHT22;50868;24.150;-110.320;2023-06-10T09:48:19;23.50;73.50
64493;DHT22;50868;24.150;-110.320;2023-06-10T09:50:46;23.30;73.80
64493;DHT22;50868;24.150;-110.320;2023-06-10T09:53:13;23.20;73.90
64493;DHT22;50868;24.150;-110.320;2023-06-10T09:55:42;23.20;73.70
64493;DHT22;50868;24.150;-110.320;2023-06-10T09:58:09;23.20;73.10
64493;DHT22;50868;24.150;-110.320;2023-06-10T10:00:36;23.20;72.30
64493;DHT22;50868;24.150;-110.320;2023-06-10T10:03:03;23.20;72.10
64493;DHT22;50868;24.150;-110.320;2023-06-10T10:05:33;23.20;72.00
64493;DHT22;50868;24.150;-110.320;2023-06-10T10:08:00;23.30;71.20
64493;DHT22;50868;24.150;-110.320;2023-06-10T10:10:27;23.20;70.70
64493;DHT22;50868;24.150;-110.320;2023-06-10T10:12:57;23.30;69.10
64493;DHT22;50868;24.150;-110.320;2023-06-10T10:15:29;23.40;69.00
64493;DHT22;50868;24.150;-110.320;2023-06-10T10:18:07;23.40;69.00
64493;DHT22;50868;24.150;-110.320;2023-06-10T10:20:49;23.40;69.80
64493;DHT22;50868;24.150;-110.320;2023-06-10T10:23:27;23.30;70.00
64493;DHT22;50868;24.150;-110.320;2023-06-10T10:25:58;23.20;70.90
64493;DHT22;50868;24.150;-110.320;2023-06-10T10:28:34;23.00;71.50
64493;DHT22;50868;24.150;-110.320;2023-06-10T10:31:07;23.10;71.80
64493;DHT22;50868;24.150;-110.320;2023-06-10T10:33:55;23.00;72.00
64493;DHT22;50868;24.150;-110.320;2023-06-10T10:36:25;22.90;72.70
64493;DHT22;50868;24.150;-110.320;2023-06-10T10:38:53;22.80;73.00
64493;DHT22;50868;24.150;-110.320;2023-06-10T10:41:21;22.90;73.20
64493;DHT22;50868;24.150;-110.320;2023-06-10T10:43:50;22.80;73.20
64493;DHT22;50868;24.150;-110.320;2023-06-10T10:46:18;22.70;73.60
64493;DHT22;50868;24.150;-110.320;2023-06-10T10:48:49;22.80;73.50
64493;DHT22;50868;24.150;-110.320;2023-06-10T10:51:18;22.70;73.40
64493;DHT22;50868;24.150;-110.320;2023-06-10T10:54:12;22.70;73.80
64493;DHT22;50868;24.150;-110.320;2023-06-10T10:57:09;22.80;73.80
64493;DHT22;50868;24.150;-110.320;2023-06-10T11:05:09;22.60;74.40
64493;DHT22;50868;24.150;-110.320;2023-06-10T11:07:37;22.60;74.50
64493;DHT22;50868;24.150;-110.320;2023-06-10T11:10:08;22.50;74.90
64493;DHT22;50868;24.150;-110.320;2023-06-10T11:12:52;22.50;75.00
64493;DHT22;50868;24.150;-110.320;2023-06-10T11:15:25;22.40;75.40
64493;DHT22;50868;24.150;-110.320;2023-06-10T11:26:18;22.40;76.40
64493;DHT22;50868;24.150;-110.320;2023-06-10T11:31:24;22.30;76.50
64493;DHT22;50868;24.150;-110.320;2023-06-10T11:34:04;22.30;76.40
64493;DHT22;50868;24.150;-110.320;2023-06-10T11:36:34;22.30;76.30
64493;DHT22;50868;24.150;-110.320;2023-06-10T11:39:05;22.20;76.20
64493;DHT22;50868;24.150;-110.320;2023-06-10T11:41:35;22.10;76.30
64493;DHT22;50868;24.150;-110.320;2023-06-10T11:44:14;22.10;76.20
64493;DHT22;50868;24.150;-110.320;2023-06-10T11:46:41;22.20;76.20
64493;DHT22;50868;24.150;-110.320;2023-06-10T11:49:09;22.10;76.20
64493;DHT22;50868;24.150;-110.320;2023-06-10T11:51:38;22.10;76.10
64493;DHT22;50868;24.150;-110.320;2023-06-10T11:54:08;22.00;76.30
64493;DHT22;50868;24.150;-110.320;2023-06-10T11:56:36;22.00;76.50
64493;DHT22;50868;24.150;-110.320;2023-06-10T11:59:05;21.90;76.30
64493;DHT22;50868;24.150;-110.320;2023-06-10T12:01:35;21.90;76.30
64493;DHT22;50868;24.150;-110.320;2023-06-10T12:04:16;22.10;76.00
64493;DHT22;50868;24.150;-110.320;2023-06-10T12:06:52;22.10;76.10
64493;DHT22;50868;24.150;-110.320;2023-06-10T12:09:21;21.90;76.30
64493;DHT22;50868;24.150;-110.320;2023-06-10T12:12:02;21.90;76.30
64493;DHT22;50868;24.150;-110.320;2023-06-10T12:14:53;21.80;76.20
64493;DHT22;50868;24.150;-110.320;2023-06-10T12:17:43;21.90;76.90
64493;DHT22;50868;24.150;-110.320;2023-06-10T12:20:25;21.90;75.80
64493;DHT22;50868;24.150;-110.320;2023-06-10T12:22:53;21.90;75.40
64493;DHT22;50868;24.150;-110.320;2023-06-10T12:25:29;21.90;75.50
64493;DHT22;50868;24.150;-110.320;2023-06-10T12:27:58;21.80;75.80
64493;DHT22;50868;24.150;-110.320;2023-06-10T12:30:26;21.80;76.00
64493;DHT22;50868;24.150;-110.320;2023-06-10T12:32:54;21.80;76.20
64493;DHT22;50868;24.150;-110.320;2023-06-10T12:35:23;21.80;76.40
64493;DHT22;50868;24.150;-110.320;2023-06-10T12:38:04;21.70;76.80
64493;DHT22;50868;24.150;-110.320;2023-06-10T12:40:38;21.80;76.80
64493;DHT22;50868;24.150;-110.320;2023-06-10T12:43:08;21.80;77.00
64493;DHT22;50868;24.150;-110.320;2023-06-10T12:45:38;21.80;77.20
64493;DHT22;50868;24.150;-110.320;2023-06-10T12:48:19;21.70;77.40
64493;DHT22;50868;24.150;-110.320;2023-06-10T12:50:53;21.70;77.70
64493;DHT22;50868;24.150;-110.320;2023-06-10T12:53:21;21.70;77.90
64493;DHT22;50868;24.150;-110.320;2023-06-10T12:55:50;21.60;78.40
64493;DHT22;50868;24.150;-110.320;2023-06-10T12:58:18;21.60;78.80
64493;DHT22;50868;24.150;-110.320;2023-06-10T13:00:46;21.50;79.10
64493;DHT22;50868;24.150;-110.320;2023-06-10T13:03:15;21.60;79.10
64493;DHT22;50868;24.150;-110.320;2023-06-10T13:05:43;21.50;79.20
64493;DHT22;50868;24.150;-110.320;2023-06-10T13:08:10;21.50;79.40
64493;DHT22;50868;24.150;-110.320;2023-06-10T13:10:37;21.50;79.60
64493;DHT22;50868;24.150;-110.320;2023-06-10T13:13:04;21.40;79.90
64493;DHT22;50868;24.150;-110.320;2023-06-10T13:15:33;21.40;80.00
64493;DHT22;50868;24.150;-110.320;2023-06-10T13:18:04;21.50;79.30
64493;DHT22;50868;24.150;-110.320;2023-06-10T13:20:31;21.50;78.60
64493;DHT22;50868;24.150;-110.320;2023-06-10T13:22:58;21.50;78.10
64493;DHT22;50868;24.150;-110.320;2023-06-10T13:25:25;21.60;77.40
64493;DHT22;50868;24.150;-110.320;2023-06-10T13:27:52;21.60;77.30
64493;DHT22;50868;24.150;-110.320;2023-06-10T13:30:19;21.80;76.40
64493;DHT22;50868;24.150;-110.320;2023-06-10T13:32:47;21.80;76.80
64493;DHT22;50868;24.150;-110.320;2023-06-10T13:35:14;21.80;76.10
64493;DHT22;50868;24.150;-110.320;2023-06-10T13:37:41;21.80;76.10
64493;DHT22;50868;24.150;-110.320;2023-06-10T13:40:08;22.00;75.30
64493;DHT22;50868;24.150;-110.320;2023-06-10T13:42:36;22.00;75.00
64493;DHT22;50868;24.150;-110.320;2023-06-10T13:45:04;22.10;74.40
64493;DHT22;50868;24.150;-110.320;2023-06-10T13:47:32;22.30;73.60
64493;DHT22;50868;24.150;-110.320;2023-06-10T13:49:59;22.30;73.80
64493;DHT22;50868;24.150;-110.320;2023-06-10T13:52:26;22.30;73.30
64493;DHT22;50868;24.150;-110.320;2023-06-10T13:54:53;22.40;72.70
64493;DHT22;50868;24.150;-110.320;2023-06-10T13:57:20;22.50;72.40
64493;DHT22;50868;24.150;-110.320;2023-06-10T13:59:47;22.60;72.00
64493;DHT22;50868;24.150;-110.320;2023-06-10T14:02:15;22.80;70.50
64493;DHT22;50868;24.150;-110.320;2023-06-10T14:04:42;22.80;70.70
64493;DHT22;50868;24.150;-110.320;2023-06-10T14:07:09;22.90;70.10
64493;DHT22;50868;24.150;-110.320;2023-06-10T14:09:36;23.00;69.50
64493;DHT22;50868;24.150;-110.320;2023-06-10T14:12:03;23.30;68.00
64493;DHT22;50868;24.150;-110.320;2023-06-10T14:14:31;23.30;67.90
64493;DHT22;50868;24.150;-110.320;2023-06-10T14:17:00;23.30;67.20
64493;DHT22;50868;24.150;-110.320;2023-06-10T14:19:27;23.40;66.80
64493;DHT22;50868;24.150;-110.320;2023-06-10T14:21:54;23.50;66.50
64493;DHT22;50868;24.150;-110.320;2023-06-10T14:24:22;23.70;66.80
64493;DHT22;50868;24.150;-110.320;2023-06-10T14:26:49;23.80;64.70
64493;DHT22;50868;24.150;-110.320;2023-06-10T14:29:16;24.00;64.10
64493;DHT22;50868;24.150;-110.320;2023-06-10T14:31:45;24.20;63.80
64493;DHT22;50868;24.150;-110.320;2023-06-10T14:34:12;24.30;63.60
64493;DHT22;50868;24.150;-110.320;2023-06-10T14:36:39;24.50;62.60
64493;DHT22;50868;24.150;-110.320;2023-06-10T14:39:06;24.50;62.60
64493;DHT22;50868;24.150;-110.320;2023-06-10T14:41:33;24.50;62.30
64493;DHT22;50868;24.150;-110.320;2023-06-10T14:44:00;24.80;61.00
64493;DHT22;50868;24.150;-110.320;2023-06-10T14:46:27;24.90;61.90
64493;DHT22;50868;24.150;-110.320;2023-06-10T14:48:55;25.00;59.70
64493;DHT22;50868;24.150;-110.320;2023-06-10T14:51:22;25.10;59.30
64493;DHT22;50868;24.150;-110.320;2023-06-10T14:53:49;25.30;59.10
64493;DHT22;50868;24.150;-110.320;2023-06-10T14:56:17;25.60;58.40
64493;DHT22;50868;24.150;-110.320;2023-06-10T14:58:44;25.80;57.60
64493;DHT22;50868;24.150;-110.320;2023-06-10T15:01:11;25.80;58.00
64493;DHT22;50868;24.150;-110.320;2023-06-10T15:03:38;26.10;57.00
64493;DHT22;50868;24.150;-110.320;2023-06-10T15:06:05;26.20;56.90
64493;DHT22;50868;24.150;-110.320;2023-06-10T15:08:32;26.30;57.20
64493;DHT22;50868;24.150;-110.320;2023-06-10T15:10:59;26.40;57.60
64493;DHT22;50868;24.150;-110.320;2023-06-10T15:13:28;26.50;56.80
64493;DHT22;50868;24.150;-110.320;2023-06-10T15:15:55;26.80;55.50
64493;DHT22;50868;24.150;-110.320;2023-06-10T15:18:22;26.90;54.10